createdAt,value
2019-05-02T00:02:23.933Z,23.30
2019-05-02T00:06:30.342Z,23.10
2019-05-02T00:10:35.502Z,22.13
2019-05-02T00:14:39.910Z,22.00
2019-05-02T00:18:44.131Z,24.47
2019-05-02T00:22:52.292Z,23.70
2019-05-02T00:26:56.064Z,24.23
2019-05-02T00:31:00.334Z,23.73
2019-05-02T00:35:04.873Z,23.77
2019-05-02T00:39:13.665Z,23.47
2019-05-02T00:43:15.369Z,24.30
2019-05-02T00:47:27.351Z,24.23
2019-05-02T00:51:31.591Z,24.60
2019-05-02T00:55:36.208Z,25.43
2019-05-02T00:59:42.376Z,24.70
2019-05-02T01:03:52.056Z,23.70
2019-05-02T01:07:56.165Z,23.33
2019-05-02T01:12:03.164Z,24.37
2019-05-02T01:16:06.214Z,24.43
2019-05-02T01:20:10.422Z,22.43
2019-05-02T01:24:14.721Z,23.07
2019-05-02T01:28:36.601Z,24.03
2019-05-02T01:33:06.448Z,21.87
2019-05-02T01:37:20.856Z,22.10
2019-05-02T01:41:29.209Z,22.57
2019-05-02T01:45:31.649Z,22.37
2019-05-02T01:49:35.885Z,21.97
2019-05-02T01:53:40.081Z,22.90
2019-05-02T01:57:44.819Z,22.80
2019-05-02T02:01:53.164Z,20.33
2019-05-02T02:05:56.038Z,21.13
2019-05-02T02:10:00.372Z,20.97
2019-05-02T02:14:07.211Z,20.33
2019-05-02T02:18:11.215Z,19.13
2019-05-02T02:22:27.276Z,20.83
2019-05-02T02:26:31.562Z,20.60
2019-05-02T02:30:35.865Z,21.10
2019-05-02T02:34:40.083Z,21.23
2019-05-02T02:38:44.296Z,21.40
2019-05-02T02:42:48.598Z,20.57
2019-05-02T02:46:53.115Z,20.57
2019-05-02T02:50:57.318Z,21.40
2019-05-02T02:55:01.546Z,20.97
2019-05-02T02:59:05.745Z,21.80
2019-05-02T03:03:09.996Z,21.73
2019-05-02T03:07:24.697Z,19.60
2019-05-02T03:11:23.395Z,19.70
2019-05-02T03:15:29.780Z,21.07
2019-05-02T03:19:34.164Z,19.87
2019-05-02T03:23:38.608Z,20.57
2019-05-02T03:27:43.132Z,20.13
2019-05-02T03:31:47.350Z,20.23
2019-05-02T03:35:51.894Z,20.20
2019-05-02T03:39:57.906Z,20.47
2019-05-02T03:44:11.202Z,20.57
2019-05-02T03:48:08.997Z,27.07
2019-05-02T03:52:13.216Z,21.33
2019-05-02T03:56:17.538Z,21.70
2019-05-02T04:00:24.208Z,21.13
2019-05-02T04:04:27.739Z,21.73
2019-05-02T04:08:33.027Z,22.60
2019-05-02T04:12:37.244Z,21.90
2019-05-02T04:16:41.582Z,21.50
2019-05-02T04:20:49.761Z,22.20
2019-05-02T04:24:54.729Z,22.10
2019-05-02T04:28:58.998Z,21.10
2019-05-02T04:33:03.234Z,22.20
2019-05-02T04:37:07.568Z,21.73
2019-05-02T04:41:18.935Z,22.03
2019-05-02T04:45:26.352Z,21.67
2019-05-02T04:49:32.673Z,21.60
2019-05-02T04:53:38.657Z,21.47
2019-05-02T04:57:38.130Z,22.10
2019-05-02T05:01:49.149Z,21.77
2019-05-02T05:05:48.232Z,24.33
2019-05-02T05:09:57.900Z,23.27
2019-05-02T05:14:00.341Z,22.50
2019-05-02T05:18:09.328Z,23.83
2019-05-02T05:22:11.992Z,23.77
2019-05-02T05:26:17.525Z,25.40
2019-05-02T05:30:21.817Z,25.00
2019-05-02T05:34:28.480Z,23.80
2019-05-02T05:38:33.337Z,23.57
2019-05-02T05:42:38.000Z,23.90
2019-05-02T05:46:42.704Z,23.93
2019-05-02T05:50:47.803Z,25.37
2019-05-02T05:54:52.122Z,25.20
2019-05-02T05:58:58.893Z,25.23
2019-05-02T06:03:13.190Z,24.87
2019-05-02T06:07:08.539Z,24.40
2019-05-02T06:11:14.805Z,26.00
2019-05-02T06:15:18.679Z,25.40
2019-05-02T06:19:23.575Z,25.70
2019-05-02T06:23:31.103Z,25.00
2019-05-02T06:27:33.659Z,28.60
2019-05-02T06:31:38.219Z,25.33
2019-05-02T06:35:43.764Z,26.57
2019-05-02T06:39:47.987Z,26.20
2019-05-02T06:43:52.282Z,26.80
2019-05-02T06:47:56.513Z,26.90
2019-05-02T06:52:00.793Z,25.87
2019-05-02T06:56:08.047Z,25.47
2019-05-02T07:00:12.899Z,24.77
2019-05-02T07:04:17.375Z,24.80
2019-05-02T07:08:23.000Z,25.70
2019-05-02T07:12:27.660Z,24.67
2019-05-02T07:16:40.584Z,26.27
2019-05-02T07:20:44.815Z,26.57
2019-05-02T07:24:49.035Z,25.50
2019-05-02T07:28:53.272Z,25.07
2019-05-02T07:33:01.109Z,25.77
2019-05-02T07:37:03.379Z,25.47
2019-05-02T07:41:07.701Z,24.37
2019-05-02T07:45:12.016Z,24.13
2019-05-02T07:49:16.235Z,25.10
2019-05-02T07:53:20.475Z,24.90
2019-05-02T07:57:25.191Z,25.23
2019-05-02T08:01:30.540Z,25.00
2019-05-02T08:05:34.763Z,25.50
2019-05-02T08:09:39.162Z,25.03
2019-05-02T08:13:44.874Z,25.63
2019-05-02T08:17:53.484Z,25.67
2019-05-02T08:21:54.965Z,23.83
2019-05-02T08:25:59.175Z,25.13
2019-05-02T08:30:04.302Z,24.70
2019-05-02T08:34:14.686Z,24.97
2019-05-02T08:38:17.936Z,25.00
2019-05-02T08:42:21.624Z,24.67
2019-05-02T08:46:25.840Z,24.90
2019-05-02T08:50:31.965Z,23.80
2019-05-02T08:54:35.939Z,24.17
2019-05-02T08:58:40.149Z,24.57
2019-05-02T09:02:44.367Z,25.17
2019-05-02T09:06:48.596Z,24.03
2019-05-02T09:10:52.825Z,24.53
2019-05-02T09:14:57.060Z,24.13
2019-05-02T09:19:02.781Z,23.30
2019-05-02T09:23:07.185Z,24.23
2019-05-02T09:27:11.832Z,23.77
2019-05-02T09:31:16.219Z,24.03
2019-05-02T09:35:20.451Z,23.47
2019-05-02T09:39:27.443Z,23.80
2019-05-02T09:43:37.511Z,22.60
2019-05-02T09:47:52.880Z,23.60
2019-05-02T09:51:45.281Z,24.57
2019-05-02T09:55:50.340Z,23.93
2019-05-02T09:59:55.858Z,26.27
2019-05-02T10:04:02.257Z,24.80
2019-05-02T10:08:08.101Z,25.37
2019-05-02T10:12:12.334Z,24.77
2019-05-02T10:16:18.093Z,25.07
2019-05-02T10:20:23.455Z,24.87
2019-05-02T10:24:28.424Z,26.97
2019-05-02T10:28:32.656Z,26.03
2019-05-02T10:32:37.184Z,24.93
2019-05-02T10:36:45.158Z,26.93
2019-05-02T10:40:52.852Z,25.47
2019-05-02T10:44:53.261Z,26.00
2019-05-02T10:49:04.147Z,25.87
2019-05-02T10:53:12.054Z,26.73
2019-05-02T10:57:14.255Z,25.57
2019-05-02T11:01:21.924Z,25.13
2019-05-02T11:05:26.830Z,26.30
2019-05-02T11:09:31.938Z,26.00
2019-05-02T11:14:00.609Z,24.37
2019-05-02T11:18:02.294Z,26.27
2019-05-02T11:22:06.555Z,26.90
2019-05-02T11:26:14.555Z,27.83
2019-05-02T11:30:20.999Z,27.27
2019-05-02T11:34:22.624Z,26.40
2019-05-02T11:38:27.061Z,25.60
2019-05-02T11:42:32.362Z,26.20
2019-05-02T11:46:37.463Z,25.27
2019-05-02T11:50:42.645Z,26.47
2019-05-02T11:54:48.498Z,26.50
2019-05-02T11:58:52.994Z,27.63
2019-05-02T12:03:15.387Z,26.40
2019-05-02T12:07:19.691Z,27.27
2019-05-02T12:11:23.936Z,26.67
2019-05-02T12:15:28.140Z,27.27
2019-05-02T12:19:32.449Z,27.03
2019-05-02T12:23:36.757Z,26.00
2019-05-02T12:27:42.438Z,27.77
2019-05-02T12:31:47.287Z,27.93
2019-05-02T12:35:52.692Z,27.37
2019-05-02T12:39:56.925Z,27.27
2019-05-02T12:44:02.292Z,25.77
2019-05-02T12:48:06.948Z,27.33
2019-05-02T12:52:12.888Z,25.63
2019-05-02T12:56:17.023Z,24.93
2019-05-02T13:00:22.336Z,24.43
2019-05-02T13:04:26.906Z,26.73
2019-05-02T13:08:32.348Z,27.03
2019-05-02T13:12:38.412Z,27.23
2019-05-02T13:16:43.075Z,26.83
2019-05-02T13:20:47.645Z,28.13
2019-05-02T13:24:56.319Z,27.90
2019-05-02T13:29:02.456Z,28.23
2019-05-02T13:33:08.936Z,29.73
2019-05-02T13:37:16.761Z,30.83
2019-05-02T13:41:22.692Z,31.43
2019-05-02T13:45:48.787Z,31.70
2019-05-02T13:49:57.295Z,32.23
2019-05-02T13:54:02.394Z,35.30
2019-05-02T13:58:06.530Z,37.33
2019-05-02T14:02:31.825Z,39.60
2019-05-02T14:06:37.931Z,36.20
2019-05-02T14:10:43.501Z,33.70
2019-05-02T14:14:47.734Z,31.37
2019-05-02T14:18:53.021Z,28.43
2019-05-02T14:22:58.351Z,26.30
2019-05-02T14:27:02.975Z,30.03
2019-05-02T14:31:08.923Z,31.67
2019-05-02T14:35:28.011Z,33.07
2019-05-02T14:39:32.347Z,34.20
2019-05-02T14:44:11.975Z,34.97
2019-05-02T14:48:22.252Z,35.50
2019-05-02T14:52:25.329Z,36.07
2019-05-02T14:56:52.217Z,37.10
2019-05-02T15:00:57.504Z,36.73
2019-05-02T15:05:02.136Z,37.83
2019-05-02T15:09:08.752Z,35.57
2019-05-02T15:13:12.994Z,35.33
2019-05-02T15:17:17.268Z,34.30
2019-05-02T15:21:22.821Z,35.23
2019-05-02T15:25:27.236Z,35.87
2019-05-02T15:29:32.240Z,32.97
2019-05-02T15:33:42.204Z,33.63
2019-05-02T15:37:46.378Z,33.73
2019-05-02T15:41:52.339Z,31.63
2019-05-02T15:45:56.719Z,30.57
2019-05-02T15:50:03.035Z,29.60
2019-05-02T15:54:08.923Z,27.80
2019-05-02T15:58:25.616Z,28.00
2019-05-02T16:02:26.485Z,28.23
2019-05-02T16:06:33.527Z,29.33
2019-05-02T16:10:38.573Z,28.13
2019-05-02T16:14:42.488Z,28.00
2019-05-02T16:18:47.141Z,26.80
2019-05-02T16:22:52.393Z,26.07
2019-05-02T16:26:57.325Z,26.83
2019-05-02T16:31:03.508Z,28.43
2019-05-02T16:35:15.308Z,27.80
2019-05-02T16:39:15.489Z,28.90
2019-05-02T16:43:20.093Z,28.53
2019-05-02T16:47:24.608Z,26.27
2019-05-02T16:51:32.289Z,24.17
2019-05-02T16:55:34.656Z,26.37
2019-05-02T16:59:38.875Z,27.10
2019-05-02T17:03:43.083Z,23.93
2019-05-02T17:08:05.239Z,25.50
2019-05-02T17:12:11.811Z,22.60
2019-05-02T17:16:17.229Z,20.37
2019-05-02T17:20:22.154Z,18.27
2019-05-02T17:24:26.486Z,18.23
2019-05-02T17:28:31.755Z,17.70
2019-05-02T17:32:37.663Z,17.23
2019-05-02T17:36:43.015Z,16.43
2019-05-02T17:40:47.875Z,16.13
2019-05-02T17:44:57.926Z,15.37
2019-05-02T17:48:58.091Z,15.20
2019-05-02T17:53:03.102Z,15.90
2019-05-02T17:57:07.347Z,16.30
2019-05-02T18:01:16.782Z,17.33
2019-05-02T18:05:21.728Z,16.03
2019-05-02T18:09:30.635Z,16.87
2019-05-02T18:13:33.816Z,16.43
2019-05-02T18:17:37.940Z,17.10
2019-05-02T18:21:42.161Z,21.43
2019-05-02T18:25:46.388Z,20.27
2019-05-02T18:29:51.663Z,9.13
2019-05-02T18:33:56.006Z,9.20
2019-05-02T18:38:00.335Z,8.07
2019-05-02T18:42:04.555Z,8.93
2019-05-02T18:46:08.787Z,7.77
2019-05-02T18:50:36.763Z,8.70
2019-05-02T18:54:43.985Z,8.60
2019-05-02T18:58:45.455Z,8.63
2019-05-02T19:02:49.751Z,8.60
2019-05-02T19:06:53.973Z,8.63
2019-05-02T19:11:05.914Z,9.20
2019-05-02T19:15:07.040Z,9.00
2019-05-02T19:19:12.452Z,9.73
2019-05-02T19:23:16.459Z,10.37
2019-05-02T19:27:39.735Z,9.10
2019-05-02T19:31:48.880Z,9.53
2019-05-02T19:35:53.270Z,9.90
2019-05-02T19:39:57.652Z,8.90
2019-05-02T19:44:02.346Z,8.90
2019-05-02T19:48:06.740Z,8.87
2019-05-02T19:52:12.719Z,8.37
2019-05-02T19:56:16.859Z,9.17
2019-05-02T20:00:21.475Z,8.23
2019-05-02T20:04:25.774Z,7.03
2019-05-02T20:08:30.107Z,6.90
2019-05-02T20:12:34.430Z,6.03
2019-05-02T20:16:52.837Z,5.07
2019-05-02T20:21:03.755Z,5.33
2019-05-02T20:25:07.995Z,4.67
2019-05-02T20:29:12.236Z,4.50
2019-05-02T20:33:16.528Z,4.20
2019-05-02T20:37:22.083Z,4.00
2019-05-02T20:41:25.856Z,4.27
2019-05-02T20:45:32.131Z,5.20
2019-05-02T20:49:36.124Z,4.73
2019-05-02T20:53:42.023Z,4.60
2019-05-02T20:57:46.523Z,4.53
2019-05-02T21:01:52.275Z,4.53
2019-05-02T21:06:15.497Z,4.77
2019-05-02T21:10:24.135Z,5.10
2019-05-02T21:14:28.365Z,5.00
2019-05-02T21:18:32.887Z,5.23
2019-05-02T21:22:37.208Z,5.30
2019-05-02T21:26:42.149Z,4.77
2019-05-02T21:30:46.807Z,5.17
2019-05-02T21:34:52.043Z,5.13
2019-05-02T21:38:56.392Z,5.83
2019-05-02T21:43:02.487Z,5.37
2019-05-02T21:47:06.809Z,4.73
2019-05-02T21:51:32.331Z,5.30
2019-05-02T21:55:54.284Z,5.67
2019-05-02T21:59:58.688Z,5.10
2019-05-02T22:04:03.111Z,5.20
2019-05-02T22:08:07.480Z,4.60
2019-05-02T22:12:12.056Z,4.83
2019-05-02T22:16:16.387Z,4.47
2019-05-02T22:20:22.868Z,4.23
2019-05-02T22:24:26.895Z,4.07
2019-05-02T22:28:32.692Z,4.30
2019-05-02T22:32:37.025Z,3.97
2019-05-02T22:36:41.512Z,3.77
2019-05-02T22:40:47.787Z,4.33
2019-05-02T22:44:52.003Z,3.83
2019-05-02T22:48:56.236Z,4.10
2019-05-02T22:53:00.587Z,4.73
2019-05-02T22:57:04.887Z,4.20
2019-05-02T23:01:09.279Z,4.70
2019-05-02T23:05:13.523Z,4.90
2019-05-02T23:09:17.818Z,5.00
2019-05-02T23:13:24.560Z,4.40
2019-05-02T23:17:27.983Z,4.87
2019-05-02T23:21:32.673Z,4.57
2019-05-02T23:25:54.883Z,4.90
2019-05-02T23:29:59.796Z,4.90
2019-05-02T23:34:04.095Z,5.37
2019-05-02T23:38:08.400Z,5.40
2019-05-02T23:42:13.507Z,5.60
2019-05-02T23:46:17.911Z,5.67
2019-05-02T23:50:22.829Z,5.60
2019-05-02T23:54:27.379Z,5.60
2019-05-02T23:58:32.066Z,5.17
